Time;durP1;ratioP1;P1;durP2;ratioP2;P2;SDS_P1;SDS_P2;PMS_P1;PMS_P2;Temp;Humidity;BMP_temperature;BMP_pressure;BME280_temperature;BME280_humidity;BME280_pressure;Samples;Min_cycle;Max_cycle;Signal;HPM_P1;HPM_P2
2022/02/03 00:02:58;;;;;;;1.97;1.77;;;;;;;18.50;46.39;101096.52;;;;-58
2022/02/03 00:05:56;;;;;;;1.87;1.77;;;;;;;18.48;46.46;101097.05;;;;-58
2022/02/03 00:09:07;;;;;;;2.10;1.84;;;;;;;18.47;46.44;101099.64;;;;-59
2022/02/03 00:21:58;;;;;;;2.03;1.83;;;;;;;18.42;46.43;101102.84;;;;-58
2022/02/03 00:23:06;;;;;;;2.10;1.90;;;;;;;18.38;46.48;101099.34;;;;-58
2022/02/03 00:25:50;;;;;;;2.73;1.90;;;;;;;18.36;46.46;101097.11;;;;-58
2022/02/03 00:28:49;;;;;;;2.15;1.95;;;;;;;18.35;46.50;101102.14;;;;-59
2022/02/03 00:32:08;;;;;;;2.07;1.77;;;;;;;18.34;46.51;101107.05;;;;-58
2022/02/03 00:35:06;;;;;;;2.10;1.90;;;;;;;18.31;46.51;101103.59;;;;-58
2022/02/03 00:38:02;;;;;;;2.06;1.73;;;;;;;18.30;46.48;101104.04;;;;-58
2022/02/03 00:49:59;;;;;;;2.11;1.91;;;;;;;18.23;46.56;101087.84;;;;-58
2022/02/03 00:52:50;;;;;;;1.94;1.79;;;;;;;18.22;46.55;101087.87;;;;-58
2022/02/03 00:55:50;;;;;;;1.85;1.71;;;;;;;18.22;46.54;101089.34;;;;-58
2022/02/03 00:58:49;;;;;;;2.17;1.81;;;;;;;18.20;46.54;101086.73;;;;-58
2022/02/03 01:01:50;;;;;;;2.01;1.80;;;;;;;18.18;46.56;101085.06;;;;-58
2022/02/03 01:04:49;;;;;;;2.10;1.90;;;;;;;18.17;46.56;101077.33;;;;-58
2022/02/03 01:07:51;;;;;;;1.97;1.77;;;;;;;18.15;46.54;101075.90;;;;-58
2022/02/03 01:10:53;;;;;;;2.11;1.90;;;;;;;18.14;46.57;101077.19;;;;-58
2022/02/03 01:13:54;;;;;;;1.90;1.79;;;;;;;18.13;46.63;101078.13;;;;-58
2022/02/03 01:17:05;;;;;;;1.94;1.81;;;;;;;18.11;46.63;101075.16;;;;-58
2022/02/03 01:34:58;;;;;;;2.11;1.77;;;;;;;18.04;46.70;101051.02;;;;-58
2022/02/03 01:43:16;;;;;;;1.99;1.80;;;;;;;18.03;46.73;101052.52;;;;-57
2022/02/03 01:43:55;;;;;;;1.70;1.60;;;;;;;18.01;46.74;101049.22;;;;-58
2022/02/03 01:46:55;;;;;;;1.81;1.71;;;;;;;18.00;46.69;101051.16;;;;-58
2022/02/03 01:51:42;;;;;;;1.76;1.63;;;;;;;17.97;46.76;101052.09;;;;-58
2022/02/03 01:54:49;;;;;;;1.89;1.74;;;;;;;17.95;46.73;101062.10;;;;-58
2022/02/03 01:57:49;;;;;;;1.67;1.57;;;;;;;17.94;46.74;101062.80;;;;-58
2022/02/03 02:00:50;;;;;;;1.89;1.70;;;;;;;17.93;46.75;101060.48;;;;-57
2022/02/03 02:03:49;;;;;;;1.97;1.75;;;;;;;17.91;46.80;101054.95;;;;-57
2022/02/03 02:06:50;;;;;;;1.82;1.70;;;;;;;17.91;46.79;101053.78;;;;-58
2022/02/03 02:09:59;;;;;;;1.90;1.72;;;;;;;17.89;46.79;101045.91;;;;-58
2022/02/03 02:12:58;;;;;;;1.84;1.71;;;;;;;17.89;46.79;101044.13;;;;-58
2022/02/03 02:16:03;;;;;;;1.99;1.80;;;;;;;17.88;46.83;101049.36;;;;-58
2022/02/03 02:19:06;;;;;;;2.00;1.80;;;;;;;17.86;46.83;101045.58;;;;-58
2022/02/03 02:41:44;;;;;;;1.89;1.70;;;;;;;17.79;46.85;101024.66;;;;-58
2022/02/03 02:44:50;;;;;;;1.79;1.69;;;;;;;17.78;46.82;101018.53;;;;-58
2022/02/03 02:47:49;;;;;;;1.80;1.67;;;;;;;17.77;46.83;101010.01;;;;-58
2022/02/03 02:50:53;;;;;;;1.69;1.59;;;;;;;17.76;46.84;101007.38;;;;-58
2022/02/03 02:54:09;;;;;;;1.62;1.52;;;;;;;17.75;46.86;101003.64;;;;-58
2022/02/03 02:56:58;;;;;;;1.75;1.65;;;;;;;17.74;46.86;101003.56;;;;-57
2022/02/03 03:00:35;;;;;;;1.71;1.61;;;;;;;17.73;46.86;101001.57;;;;-58
2022/02/03 03:03:17;;;;;;;1.69;1.59;;;;;;;17.73;46.88;101002.78;;;;-58
2022/02/03 03:33:02;;;;;;;1.59;1.49;;;;;;;17.62;46.95;100982.29;;;;-58
2022/02/03 03:35:52;;;;;;;1.65;1.55;;;;;;;17.61;46.91;100974.31;;;;-58
2022/02/03 03:38:50;;;;;;;1.60;1.50;;;;;;;17.61;46.94;100977.14;;;;-58
2022/02/03 03:41:50;;;;;;;1.60;1.50;;;;;;;17.60;46.95;100977.70;;;;-57
2022/02/03 03:44:49;;;;;;;1.60;1.50;;;;;;;17.59;46.96;100977.42;;;;-57
2022/02/03 03:47:50;;;;;;;1.61;1.51;;;;;;;17.58;46.96;100979.84;;;;-58
2022/02/03 03:50:50;;;;;;;1.65;1.55;;;;;;;17.58;46.91;100974.09;;;;-58
2022/02/03 03:54:01;;;;;;;1.59;1.49;;;;;;;17.57;46.91;100975.44;;;;-58
2022/02/03 03:56:58;;;;;;;1.88;1.60;;;;;;;17.57;46.94;100978.02;;;;-58
2022/02/03 04:00:19;;;;;;;1.71;1.61;;;;;;;17.56;46.92;100976.96;;;;-58
2022/02/03 04:30:15;;;;;;;1.64;1.54;;;;;;;17.47;46.95;100948.73;;;;-56
2022/02/03 04:36:53;;;;;;;1.60;1.50;;;;;;;17.47;46.95;100958.91;;;;-56
2022/02/03 04:43:24;;;;;;;1.60;1.50;;;;;;;17.45;46.95;100954.09;;;;-51
2022/02/03 04:50:58;;;;;;;1.58;1.48;;;;;;;17.45;46.95;100959.92;;;;-51
2022/02/03 04:51:17;;;;;;;1.55;1.45;;;;;;;17.42;47.02;100954.60;;;;-50
2022/02/03 04:54:36;;;;;;;1.70;1.60;;;;;;;17.42;46.97;100948.36;;;;-50
2022/02/03 04:58:19;;;;;;;1.60;1.50;;;;;;;17.41;46.98;100942.97;;;;-52
2022/02/03 05:01:17;;;;;;;1.83;1.67;;;;;;;17.39;46.99;100935.99;;;;-50
2022/02/03 05:03:55;;;;;;;1.54;1.44;;;;;;;17.38;47.00;100933.37;;;;-51
2022/02/03 05:06:59;;;;;;;1.68;1.58;;;;;;;17.38;46.98;100925.18;;;;-50
2022/02/03 05:11:00;;;;;;;1.53;1.43;;;;;;;17.37;46.98;100914.89;;;;-50
2022/02/03 05:14:17;;;;;;;1.59;1.49;;;;;;;17.37;47.03;100913.42;;;;-51
2022/02/03 05:17:11;;;;;;;1.60;1.50;;;;;;;17.36;46.99;100914.36;;;;-51
2022/02/03 05:20:17;;;;;;;1.60;1.50;;;;;;;17.35;47.05;100910.22;;;;-51
2022/02/03 05:23:20;;;;;;;1.63;1.53;;;;;;;17.34;47.02;100914.31;;;;-51
2022/02/03 05:32:00;;;;;;;1.54;1.41;;;;;;;17.34;47.04;100925.48;;;;-51
2022/02/03 05:34:53;;;;;;;1.50;1.40;;;;;;;17.33;47.07;100922.89;;;;-52
2022/02/03 05:44:04;;;;;;;1.95;1.50;;;;;;;17.30;47.05;100904.34;;;;-58
2022/02/03 05:51:11;;;;;;;1.52;1.42;;;;;;;17.30;47.05;100898.59;;;;-58
2022/02/03 06:03:18;;;;;;;1.53;1.43;;;;;;;17.30;47.03;100886.59;;;;-58
2022/02/03 06:05:58;;;;;;;1.47;1.37;;;;;;;17.29;47.04;100884.41;;;;-58
2022/02/03 06:08:58;;;;;;;1.60;1.50;;;;;;;17.30;47.01;100870.07;;;;-58
2022/02/03 06:12:46;;;;;;;1.54;1.44;;;;;;;17.28;47.03;100862.09;;;;-58
2022/02/03 06:16:05;;;;;;;1.51;1.41;;;;;;;17.29;47.03;100866.02;;;;-58
2022/02/03 06:21:57;;;;;;;1.57;1.47;;;;;;;17.29;47.02;100858.97;;;;-58
2022/02/03 06:27:24;;;;;;;1.51;1.41;;;;;;;17.28;47.04;100860.64;;;;-57
2022/02/03 06:27:50;;;;;;;1.47;1.37;;;;;;;17.29;46.97;100854.76;;;;-58
2022/02/03 06:30:50;;;;;;;1.50;1.40;;;;;;;17.29;47.03;100846.58;;;;-57
2022/02/03 06:33:49;;;;;;;1.50;1.40;;;;;;;17.29;47.02;100845.53;;;;-57
2022/02/03 06:36:50;;;;;;;1.50;1.40;;;;;;;17.29;47.02;100848.69;;;;-58
2022/02/03 06:39:49;;;;;;;1.41;1.29;;;;;;;17.29;46.98;100857.59;;;;-58
2022/02/03 06:42:54;;;;;;;1.45;1.35;;;;;;;17.28;47.03;100860.06;;;;-58
2022/02/03 06:45:59;;;;;;;1.38;1.28;;;;;;;17.28;47.14;100864.52;;;;-51
2022/02/03 06:48:55;;;;;;;2.62;1.60;;;;;;;17.29;47.19;100873.95;;;;-51
2022/02/03 06:51:57;;;;;;;8.24;1.46;;;;;;;17.29;47.10;100876.39;;;;-51
2022/02/03 06:55:02;;;;;;;1.80;1.30;;;;;;;17.29;47.09;100865.94;;;;-51
2022/02/03 06:57:55;;;;;;;2.37;1.40;;;;;;;17.29;47.10;100863.18;;;;-51
2022/02/03 07:00:58;;;;;;;1.51;1.41;;;;;;;17.28;47.06;100874.08;;;;-57
2022/02/03 07:03:55;;;;;;;1.47;1.37;;;;;;;17.28;47.04;100869.22;;;;-57
2022/02/03 07:06:50;;;;;;;1.53;1.40;;;;;;;17.28;47.06;100860.63;;;;-57
2022/02/03 07:09:52;;;;;;;1.45;1.35;;;;;;;17.28;47.05;100860.95;;;;-57
2022/02/03 07:12:49;;;;;;;1.71;1.61;;;;;;;17.27;47.05;100860.87;;;;-57
2022/02/03 07:15:50;;;;;;;1.44;1.34;;;;;;;17.27;47.02;100852.05;;;;-57
2022/02/03 07:18:49;;;;;;;1.40;1.30;;;;;;;17.27;47.02;100851.31;;;;-57
2022/02/03 07:21:50;;;;;;;1.59;1.49;;;;;;;17.26;47.00;100852.36;;;;-57
2022/02/03 07:24:52;;;;;;;1.47;1.37;;;;;;;17.26;46.99;100846.90;;;;-57
2022/02/03 07:27:49;;;;;;;1.54;1.44;;;;;;;17.26;47.01;100850.14;;;;-57
2022/02/03 07:30:50;;;;;;;2.42;1.51;;;;;;;17.25;47.04;100842.69;;;;-52
2022/02/03 07:33:49;;;;;;;1.49;1.39;;;;;;;17.25;47.06;100837.01;;;;-57
2022/02/03 07:36:50;;;;;;;1.50;1.40;;;;;;;17.25;47.03;100829.97;;;;-58
2022/02/03 07:39:50;;;;;;;1.50;1.40;;;;;;;17.24;47.00;100825.72;;;;-52
2022/02/03 07:42:51;;;;;;;1.59;1.49;;;;;;;17.23;47.03;100826.84;;;;-51
2022/02/03 07:45:50;;;;;;;1.45;1.35;;;;;;;17.23;47.07;100827.57;;;;-56
2022/02/03 07:48:52;;;;;;;1.45;1.35;;;;;;;17.22;47.06;100822.67;;;;-56
2022/02/03 07:51:49;;;;;;;1.61;1.40;;;;;;;17.22;47.00;100824.45;;;;-57
2022/02/03 07:54:50;;;;;;;1.58;1.48;;;;;;;17.21;47.04;100821.13;;;;-57
2022/02/03 07:57:49;;;;;;;1.49;1.39;;;;;;;17.21;47.04;100826.72;;;;-57
2022/02/03 08:00:50;;;;;;;1.40;1.30;;;;;;;17.20;47.04;100830.03;;;;-57
2022/02/03 08:03:50;;;;;;;1.45;1.35;;;;;;;17.21;47.04;100826.72;;;;-58
2022/02/03 08:06:50;;;;;;;1.50;1.40;;;;;;;17.20;47.04;100825.30;;;;-52
2022/02/03 08:09:56;;;;;;;1.89;1.59;;;;;;;17.20;47.05;100826.35;;;;-57
2022/02/03 08:12:49;;;;;;;1.47;1.37;;;;;;;17.19;47.02;100822.38;;;;-57
2022/02/03 08:15:57;;;;;;;1.45;1.35;;;;;;;17.18;47.06;100823.88;;;;-51
2022/02/03 08:18:55;;;;;;;1.43;1.33;;;;;;;17.18;47.01;100816.38;;;;-57
2022/02/03 08:21:58;;;;;;;1.50;1.40;;;;;;;17.17;47.05;100811.25;;;;-58
2022/02/03 08:24:52;;;;;;;1.59;1.49;;;;;;;17.17;47.06;100809.95;;;;-51
2022/02/03 08:28:26;;;;;;;1.40;1.30;;;;;;;17.16;47.09;100806.19;;;;-57
2022/02/03 08:30:59;;;;;;;1.57;1.40;;;;;;;17.16;47.08;100804.68;;;;-51
2022/02/03 08:33:53;;;;;;;1.53;1.43;;;;;;;17.16;47.04;100792.58;;;;-51
2022/02/03 08:36:50;;;;;;;1.50;1.40;;;;;;;17.16;47.06;100779.95;;;;-51
2022/02/03 08:39:56;;;;;;;1.43;1.33;;;;;;;17.15;47.08;100776.13;;;;-51
2022/02/03 08:42:49;;;;;;;1.61;1.51;;;;;;;17.15;47.07;100779.22;;;;-51
2022/02/03 08:45:50;;;;;;;1.39;1.29;;;;;;;17.14;47.06;100770.87;;;;-58
2022/02/03 08:48:49;;;;;;;1.40;1.30;;;;;;;17.15;47.01;100778.41;;;;-57
2022/02/03 08:51:51;;;;;;;2.17;1.41;;;;;;;17.15;47.39;100781.48;;;;-60
2022/02/03 08:55:00;;;;;;;1.83;1.40;;;;;;;17.17;47.65;100782.90;;;;-50
2022/02/03 08:58:07;;;;;;;2.14;1.35;;;;;;;17.20;47.98;100783.52;;;;-49
2022/02/03 09:28:13;;;;;;;1.51;1.41;;;;;;;17.24;48.35;100789.34;;;;-50
2022/02/03 09:37:15;;;;;;;1.30;1.20;;;;;;;18.05;49.12;100730.54;;;;-46
2022/02/03 09:40:12;;;;;;;1.68;1.32;;;;;;;18.11;49.05;100738.72;;;;-46
2022/02/03 09:52:16;;;;;;;2.92;2.70;;;;;;;18.01;49.31;100729.55;;;;-52
2022/02/03 09:55:09;;;;;;;2.63;2.43;;;;;;;18.08;49.41;100750.93;;;;-51
2022/02/03 09:57:59;;;;;;;2.15;1.95;;;;;;;18.17;49.31;100742.23;;;;-52
2022/02/03 10:01:03;;;;;;;2.47;1.81;;;;;;;18.22;49.10;100716.13;;;;-60
2022/02/03 10:04:01;;;;;;;2.14;1.74;;;;;;;18.30;49.05;100705.11;;;;-53
2022/02/03 10:06:59;;;;;;;3.45;1.65;;;;;;;18.35;49.00;100712.50;;;;-54
2022/02/03 10:09:50;;;;;;;2.09;1.60;;;;;;;18.39;49.02;100703.80;;;;-60
2022/02/03 10:12:50;;;;;;;1.89;1.42;;;;;;;18.43;49.02;100704.34;;;;-59
2022/02/03 10:15:50;;;;;;;2.23;1.50;;;;;;;18.46;49.05;100683.52;;;;-60
2022/02/03 10:18:50;;;;;;;1.49;1.39;;;;;;;18.49;48.98;100666.94;;;;-57
2022/02/03 10:21:50;;;;;;;1.72;1.61;;;;;;;18.53;48.96;100661.53;;;;-56
2022/02/03 10:24:52;;;;;;;1.52;1.42;;;;;;;18.54;48.91;100662.53;;;;-54
2022/02/03 10:27:56;;;;;;;1.57;1.45;;;;;;;18.56;48.76;100660.77;;;;-61
2022/02/03 10:30:54;;;;;;;3.01;1.56;;;;;;;18.58;48.15;100663.97;;;;-52
2022/02/03 10:33:53;;;;;;;1.89;1.40;;;;;;;18.57;48.05;100652.50;;;;-55
2022/02/03 10:36:56;;;;;;;4.08;1.47;;;;;;;18.58;48.26;100643.11;;;;-58
2022/02/03 10:43:12;;;;;;;1.81;1.46;;;;;;;18.66;48.37;100633.31;;;;-60
2022/02/03 10:51:03;;;;;;;1.82;1.36;;;;;;;18.76;48.08;100628.13;;;;-51
2022/02/03 10:54:13;;;;;;;1.68;1.30;;;;;;;18.79;48.30;100617.34;;;;-51
2022/02/03 10:57:15;;;;;;;1.91;1.39;;;;;;;18.80;48.24;100596.02;;;;-53
2022/02/03 11:00:25;;;;;;;2.30;1.51;;;;;;;18.85;48.33;100612.86;;;;-50
2022/02/03 11:03:06;;;;;;;1.48;1.38;;;;;;;18.88;48.21;100613.70;;;;-59
2022/02/03 11:06:05;;;;;;;1.64;1.30;;;;;;;18.91;48.11;100603.59;;;;-52
2022/02/03 11:08:51;;;;;;;1.46;1.36;;;;;;;18.95;48.13;100578.38;;;;-52
2022/02/03 11:11:55;;;;;;;1.55;1.45;;;;;;;18.97;47.97;100582.38;;;;-58
2022/02/03 11:14:50;;;;;;;1.35;1.21;;;;;;;19.03;48.05;100589.08;;;;-56
2022/02/03 11:17:49;;;;;;;1.95;1.30;;;;;;;19.04;47.95;100578.87;;;;-56
2022/02/03 11:20:50;;;;;;;1.50;1.32;;;;;;;19.07;47.95;100585.79;;;;-58
2022/02/03 11:23:57;;;;;;;2.49;1.40;;;;;;;19.10;47.85;100584.30;;;;-55
2022/02/03 11:27:05;;;;;;;1.35;1.25;;;;;;;19.13;47.90;100575.62;;;;-54
2022/02/03 11:30:29;;;;;;;1.71;1.43;;;;;;;19.14;47.63;100576.30;;;;-54
2022/02/03 11:33:09;;;;;;;1.89;1.39;;;;;;;19.14;47.43;100568.98;;;;-56
2022/02/03 11:39:26;;;;;;;2.31;1.37;;;;;;;19.11;47.01;100538.83;;;;-56
2022/02/03 11:42:07;;;;;;;1.43;1.30;;;;;;;19.12;47.34;100523.48;;;;-56
2022/02/03 11:45:30;;;;;;;1.47;1.35;;;;;;;19.11;46.92;100510.53;;;;-55
2022/02/03 11:48:11;;;;;;;1.53;1.30;;;;;;;19.13;47.12;100521.11;;;;-56
2022/02/03 11:56:07;;;;;;;2.05;1.30;;;;;;;19.13;46.98;100521.69;;;;-55
2022/02/03 12:01:57;;;;;;;4.41;1.64;;;;;;;19.11;47.06;100509.72;;;;-56
2022/02/03 12:05:05;;;;;;;1.63;1.53;;;;;;;19.08;47.20;100506.78;;;;-51
2022/02/03 12:08:17;;;;;;;2.91;1.43;;;;;;;19.05;47.41;100500.11;;;;-47
2022/02/03 12:11:07;;;;;;;2.21;1.50;;;;;;;19.09;47.21;100489.88;;;;-50
2022/02/03 12:14:03;;;;;;;2.15;1.40;;;;;;;19.11;47.05;100472.44;;;;-50
2022/02/03 12:17:00;;;;;;;1.89;1.39;;;;;;;19.13;46.86;100468.23;;;;-50
2022/02/03 12:19:50;;;;;;;2.04;1.40;;;;;;;19.15;47.06;100461.58;;;;-50
2022/02/03 12:23:08;;;;;;;1.47;1.37;;;;;;;19.15;46.82;100454.05;;;;-50
2022/02/03 12:25:55;;;;;;;1.46;1.19;;;;;;;19.16;46.71;100448.20;;;;-50
2022/02/03 12:28:52;;;;;;;1.37;1.27;;;;;;;19.19;46.85;100440.73;;;;-65
2022/02/03 12:32:02;;;;;;;1.56;1.33;;;;;;;19.21;46.89;100436.36;;;;-64
2022/02/03 12:38:14;;;;;;;2.23;1.30;;;;;;;19.24;46.77;100433.32;;;;-64
2022/02/03 12:40:57;;;;;;;1.53;1.35;;;;;;;19.25;46.81;100417.46;;;;-63
2022/02/03 12:43:56;;;;;;;1.36;1.24;;;;;;;19.25;46.61;100422.66;;;;-64
2022/02/03 12:46:49;;;;;;;1.37;1.26;;;;;;;19.27;46.54;100422.44;;;;-58
2022/02/03 12:49:49;;;;;;;2.33;1.25;;;;;;;19.28;46.59;100408.72;;;;-51
2022/02/03 12:52:49;;;;;;;1.23;1.13;;;;;;;19.29;46.54;100417.41;;;;-51
2022/02/03 12:55:51;;;;;;;2.31;1.30;;;;;;;19.29;46.48;100412.45;;;;-50
2022/02/03 12:58:52;;;;;;;1.35;1.25;;;;;;;19.29;46.56;100408.96;;;;-51
2022/02/03 13:01:49;;;;;;;1.29;1.19;;;;;;;19.29;46.50;100406.20;;;;-50
2022/02/03 13:04:50;;;;;;;1.45;1.25;;;;;;;19.28;46.55;100408.40;;;;-51
2022/02/03 13:07:49;;;;;;;1.37;1.19;;;;;;;19.29;46.46;100409.53;;;;-50
2022/02/03 13:10:54;;;;;;;1.30;1.20;;;;;;;19.29;46.45;100399.95;;;;-50
2022/02/03 13:14:02;;;;;;;1.29;1.20;;;;;;;19.29;46.51;100398.23;;;;-50
2022/02/03 13:16:54;;;;;;;1.50;1.20;;;;;;;19.29;46.47;100391.58;;;;-50
2022/02/03 13:19:52;;;;;;;1.21;1.10;;;;;;;19.28;46.55;100385.00;;;;-48
2022/02/03 13:22:55;;;;;;;1.79;1.25;;;;;;;19.31;46.79;100377.61;;;;-47
2022/02/03 13:25:55;;;;;;;1.27;1.17;;;;;;;19.34;46.92;100378.12;;;;-49
